Time;durP1;ratioP1;P1;durP2;ratioP2;P2;SDS_P1;SDS_P2;PMS_P1;PMS_P2;Temp;Humidity;BMP_temperature;BMP_pressure;BME280_temperature;BME280_humidity;BME280_pressure;Samples;Min_cycle;Max_cycle;Signal;HPM_P1;HPM_P2
2021/12/27 00:01:38;;;;;;;2.85;2.00;;;21.00;28.50;;;;;;5035571;28;20028;-59
2021/12/27 00:04:04;;;;;;;3.13;2.05;;;21.00;28.50;;;;;;5017616;28;20061;-58
2021/12/27 00:06:31;;;;;;;2.72;2.13;;;21.00;28.50;;;;;;5013894;28;20076;-57
2021/12/27 00:08:57;;;;;;;2.17;1.95;;;21.00;28.60;;;;;;5009693;28;20108;-58
2021/12/27 00:11:23;;;;;;;2.00;1.67;;;21.00;28.60;;;;;;5007026;28;20030;-59
2021/12/27 00:13:49;;;;;;;2.60;2.10;;;21.00;28.60;;;;;;4999228;28;20026;-59
2021/12/27 00:16:15;;;;;;;2.60;2.17;;;21.00;28.60;;;;;;5009310;28;21608;-59
2021/12/27 00:18:41;;;;;;;3.13;2.40;;;21.00;28.60;;;;;;5007718;28;20290;-55
2021/12/27 00:21:07;;;;;;;2.80;2.33;;;21.00;28.60;;;;;;5000686;28;20034;-58
2021/12/27 00:23:33;;;;;;;2.17;1.90;;;21.00;28.70;;;;;;4996277;28;20392;-58
2021/12/27 00:25:59;;;;;;;3.25;2.60;;;21.00;28.70;;;;;;4995804;28;20113;-57
2021/12/27 00:28:25;;;;;;;2.38;2.03;;;21.00;28.70;;;;;;5000044;28;20337;-58
2021/12/27 00:30:51;;;;;;;2.58;2.00;;;21.00;28.70;;;;;;5001742;28;20026;-59
2021/12/27 00:33:17;;;;;;;2.45;2.20;;;21.00;28.70;;;;;;5002924;28;20034;-58
2021/12/27 00:35:42;;;;;;;2.15;1.90;;;21.00;28.70;;;;;;5002575;28;20041;-58
2021/12/27 00:38:09;;;;;;;2.63;2.03;;;20.90;28.70;;;;;;5006487;28;20079;-58
2021/12/27 00:40:35;;;;;;;3.05;2.13;;;21.00;28.70;;;;;;4997706;28;20460;-54
2021/12/27 00:43:01;;;;;;;3.40;2.30;;;21.00;28.70;;;;;;5005106;28;20168;-58
2021/12/27 00:45:27;;;;;;;2.08;1.80;;;21.00;28.70;;;;;;5013810;28;20105;-56
2021/12/27 00:47:54;;;;;;;2.78;2.33;;;20.90;28.70;;;;;;5004336;28;20110;-58
2021/12/27 00:50:20;;;;;;;3.03;2.10;;;21.00;28.70;;;;;;4997129;28;20042;-58
2021/12/27 00:52:46;;;;;;;3.17;2.40;;;21.00;28.80;;;;;;4996447;28;20065;-58
2021/12/27 00:55:13;;;;;;;2.65;2.08;;;20.90;28.70;;;;;;5002019;28;20036;-60
2021/12/27 00:57:39;;;;;;;2.95;2.33;;;20.90;28.70;;;;;;4996021;28;20030;-58
2021/12/27 01:00:08;;;;;;;2.55;1.95;;;21.00;28.80;;;;;;5009065;28;20880;-58
2021/12/27 01:02:34;;;;;;;2.80;2.20;;;21.00;28.80;;;;;;5002782;28;20357;-59
2021/12/27 01:05:00;;;;;;;2.28;2.03;;;20.90;28.70;;;;;;5039521;28;20025;-56
2021/12/27 01:07:26;;;;;;;2.72;2.05;;;20.90;28.80;;;;;;5037955;28;20039;-57
2021/12/27 01:12:35;;;;;;;2.67;1.95;;;20.90;28.80;;;;;;5040632;28;20021;-57
2021/12/27 01:17:39;;;;;;;2.58;1.90;;;20.90;28.80;;;;;;5047641;28;20036;-55
2021/12/27 01:20:10;;;;;;;2.35;2.05;;;20.90;28.80;;;;;;5043402;28;20024;-58
2021/12/27 01:22:36;;;;;;;2.72;2.10;;;20.80;28.80;;;;;;5041573;28;20021;-57
2021/12/27 01:25:03;;;;;;;2.38;2.17;;;20.90;28.80;;;;;;5038729;28;20458;-58
2021/12/27 01:27:29;;;;;;;2.17;1.75;;;20.90;28.90;;;;;;5023447;28;20076;-56
2021/12/27 01:29:55;;;;;;;3.17;2.53;;;20.90;28.90;;;;;;5033082;28;20029;-58
2021/12/27 01:32:23;;;;;;;2.20;1.90;;;20.80;28.80;;;;;;5025430;28;20033;-60
2021/12/27 01:34:49;;;;;;;2.72;2.10;;;20.80;28.90;;;;;;5039026;28;20025;-59
2021/12/27 01:37:18;;;;;;;2.58;1.77;;;20.80;28.90;;;;;;5044937;28;20107;-56
2021/12/27 01:39:44;;;;;;;2.20;2.00;;;20.80;28.90;;;;;;5038759;28;20489;-57
2021/12/27 01:42:10;;;;;;;2.70;1.85;;;20.80;29.40;;;;;;5042558;28;20029;-57
2021/12/27 01:44:36;;;;;;;2.85;2.30;;;20.80;28.90;;;;;;5048849;28;20375;-57
2021/12/27 01:47:02;;;;;;;2.20;1.90;;;20.80;28.90;;;;;;5050982;28;20033;-57
2021/12/27 01:49:28;;;;;;;2.50;2.10;;;20.80;29.00;;;;;;5050779;28;20037;-56
2021/12/27 01:51:54;;;;;;;2.30;2.10;;;20.80;29.00;;;;;;5052451;28;20017;-59
2021/12/27 01:54:20;;;;;;;3.05;2.00;;;20.80;29.00;;;;;;5039400;28;20063;-53
2021/12/27 01:56:46;;;;;;;2.78;2.08;;;20.80;29.00;;;;;;5046342;28;20052;-58
2021/12/27 01:59:12;;;;;;;2.38;1.85;;;20.80;29.00;;;;;;5040431;28;20361;-58
2021/12/27 02:01:38;;;;;;;2.47;1.92;;;20.80;29.00;;;;;;5055648;28;20105;-56
2021/12/27 02:04:04;;;;;;;2.45;2.05;;;20.80;29.00;;;;;;5054755;28;20480;-57
2021/12/27 02:06:30;;;;;;;2.22;2.00;;;20.70;29.00;;;;;;5037790;28;20109;-59
2021/12/27 02:08:56;;;;;;;2.10;1.90;;;20.70;29.10;;;;;;5047207;28;20040;-58
2021/12/27 02:11:22;;;;;;;2.97;2.00;;;20.70;29.10;;;;;;5038815;28;20025;-59
2021/12/27 02:13:49;;;;;;;2.20;1.92;;;20.70;29.10;;;;;;5020420;28;20029;-58
2021/12/27 02:16:19;;;;;;;2.85;2.05;;;20.70;29.10;;;;;;5046195;28;20131;-55
2021/12/27 02:18:46;;;;;;;2.40;1.90;;;20.70;29.10;;;;;;5037251;28;20436;-55
2021/12/27 02:21:12;;;;;;;2.08;1.88;;;20.80;29.20;;;;;;5044928;28;20040;-55
2021/12/27 02:23:40;;;;;;;2.75;2.10;;;20.70;29.20;;;;;;5037894;28;20108;-57
2021/12/27 02:26:07;;;;;;;2.78;2.08;;;20.70;29.20;;;;;;5045198;28;20108;-54
2021/12/27 02:28:33;;;;;;;2.00;1.80;;;20.70;29.20;;;;;;5054681;28;20029;-55
2021/12/27 02:30:59;;;;;;;2.78;2.22;;;20.70;29.20;;;;;;5027677;28;20345;-53
2021/12/27 02:33:25;;;;;;;2.08;1.73;;;20.70;29.20;;;;;;5037165;28;20116;-57
2021/12/27 02:35:55;;;;;;;2.35;1.90;;;20.70;29.20;;;;;;5033382;28;20199;-59
2021/12/27 02:38:24;;;;;;;2.97;2.22;;;20.70;29.20;;;;;;5055788;28;20094;-57
2021/12/27 02:40:51;;;;;;;2.25;1.92;;;20.70;29.20;;;;;;5054463;28;20083;-54
2021/12/27 02:43:20;;;;;;;2.50;1.77;;;20.70;29.30;;;;;;5055983;28;20428;-59
2021/12/27 02:45:52;;;;;;;2.45;2.20;;;20.70;29.30;;;;;;5047749;28;20051;-58
2021/12/27 02:48:21;;;;;;;2.60;2.00;;;20.70;29.30;;;;;;5038352;28;20087;-57
2021/12/27 02:50:48;;;;;;;2.40;1.70;;;20.70;29.30;;;;;;5036637;28;20033;-59
2021/12/27 02:53:14;;;;;;;2.65;2.13;;;20.70;29.30;;;;;;5039910;28;20520;-58
2021/12/27 02:55:41;;;;;;;2.20;2.00;;;20.70;29.40;;;;;;5047653;28;20079;-57
2021/12/27 02:58:07;;;;;;;2.45;1.60;;;20.70;29.40;;;;;;5035745;28;20353;-58
2021/12/27 03:00:40;;;;;;;2.13;1.85;;;20.70;29.40;;;;;;5055874;28;20025;-58
2021/12/27 03:03:06;;;;;;;3.15;1.98;;;20.60;29.40;;;;;;5037872;28;20361;-60
2021/12/27 03:05:32;;;;;;;2.38;1.90;;;20.60;29.40;;;;;;5052057;28;20017;-59
2021/12/27 03:07:59;;;;;;;2.58;1.75;;;20.60;29.40;;;;;;5036130;28;20325;-57
2021/12/27 03:10:28;;;;;;;2.20;1.75;;;20.60;29.40;;;;;;5048640;28;20140;-53
2021/12/27 03:12:56;;;;;;;2.30;1.58;;;20.60;29.40;;;;;;5053318;28;20029;-56
2021/12/27 03:15:26;;;;;;;2.13;1.77;;;20.60;29.50;;;;;;5054648;28;20064;-58
2021/12/27 03:17:54;;;;;;;2.15;1.75;;;20.60;29.50;;;;;;5046760;28;20179;-52
2021/12/27 03:20:23;;;;;;;2.80;1.70;;;20.70;29.60;;;;;;5039557;28;20044;-52
2021/12/27 03:22:48;;;;;;;1.90;1.65;;;20.60;29.60;;;;;;5045143;28;20017;-52
2021/12/27 03:25:21;;;;;;;2.20;1.80;;;20.60;29.60;;;;;;5053073;28;20351;-56
2021/12/27 03:27:47;;;;;;;2.95;2.10;;;20.60;29.60;;;;;;5044524;28;20021;-54
2021/12/27 03:30:17;;;;;;;2.33;1.65;;;20.60;29.60;;;;;;5036754;28;20056;-56
2021/12/27 03:32:43;;;;;;;2.75;2.00;;;20.60;29.60;;;;;;5042236;28;20425;-53
2021/12/27 03:35:13;;;;;;;2.72;1.90;;;20.60;29.60;;;;;;5036203;28;20029;-53
2021/12/27 03:37:47;;;;;;;2.33;1.80;;;20.60;29.60;;;;;;5045186;28;20037;-56
2021/12/27 03:40:15;;;;;;;1.98;1.60;;;20.60;29.70;;;;;;5035938;28;20118;-58
2021/12/27 03:42:41;;;;;;;2.60;1.90;;;20.60;29.70;;;;;;5041626;28;20051;-52
2021/12/27 03:45:09;;;;;;;2.65;2.00;;;20.60;29.70;;;;;;5046860;28;20052;-55
2021/12/27 03:47:36;;;;;;;2.55;1.83;;;20.60;29.70;;;;;;5046602;28;20029;-59
2021/12/27 03:50:03;;;;;;;2.13;1.73;;;20.60;29.70;;;;;;5044913;28;20328;-59
2021/12/27 03:52:29;;;;;;;2.03;1.80;;;20.60;29.70;;;;;;5044894;28;20033;-57
2021/12/27 03:54:55;;;;;;;1.90;1.70;;;20.60;29.70;;;;;;5036218;28;21324;-57
2021/12/27 03:57:21;;;;;;;2.28;1.80;;;20.60;29.70;;;;;;5045588;28;20036;-53
2021/12/27 04:02:14;;;;;;;2.50;1.70;;;20.60;29.70;;;;;;5035252;28;20112;-55
2021/12/27 04:04:41;;;;;;;2.88;1.80;;;20.60;29.70;;;;;;5046736;28;20033;-56
2021/12/27 04:07:09;;;;;;;2.40;1.65;;;20.60;29.80;;;;;;5023382;28;20040;-57
2021/12/27 04:09:36;;;;;;;2.63;1.80;;;20.50;29.70;;;;;;5053727;28;20028;-58
2021/12/27 04:12:02;;;;;;;3.05;1.75;;;20.50;29.80;;;;;;5045671;28;20025;-54
2021/12/27 04:14:28;;;;;;;2.03;1.63;;;20.50;29.80;;;;;;5037130;28;20041;-55
2021/12/27 04:16:55;;;;;;;2.53;1.92;;;20.50;29.80;;;;;;5036541;28;20455;-57
2021/12/27 04:19:20;;;;;;;2.90;1.90;;;20.50;29.80;;;;;;5048823;28;20025;-55
2021/12/27 04:21:46;;;;;;;2.55;1.95;;;20.50;29.80;;;;;;5041853;28;20017;-57
2021/12/27 04:24:12;;;;;;;2.60;2.08;;;20.50;29.80;;;;;;5053377;28;20031;-57
2021/12/27 04:26:39;;;;;;;1.90;1.70;;;20.50;29.80;;;;;;5046249;28;20025;-56
2021/12/27 04:29:05;;;;;;;2.55;2.00;;;20.50;29.90;;;;;;5059304;28;20032;-56
2021/12/27 04:31:32;;;;;;;2.63;1.70;;;20.50;29.90;;;;;;5059882;28;20056;-56
2021/12/27 04:33:58;;;;;;;2.50;1.73;;;20.50;29.90;;;;;;5026096;28;20021;-55
2021/12/27 04:36:24;;;;;;;3.35;1.88;;;20.50;29.90;;;;;;5034230;28;20413;-55
2021/12/27 04:38:49;;;;;;;3.00;2.15;;;20.50;29.90;;;;;;5048499;28;20032;-58
2021/12/27 04:41:21;;;;;;;2.78;1.80;;;20.50;29.90;;;;;;5041367;28;20037;-56
2021/12/27 04:43:46;;;;;;;3.15;1.90;;;20.50;30.00;;;;;;5041741;28;20021;-54
2021/12/27 04:46:12;;;;;;;4.45;1.98;;;20.50;30.00;;;;;;5041365;28;20021;-57
2021/12/27 04:48:38;;;;;;;2.58;2.05;;;20.50;30.00;;;;;;5034440;28;20108;-57
2021/12/27 04:51:04;;;;;;;2.22;1.90;;;20.50;30.00;;;;;;5039930;28;20037;-58
2021/12/27 04:53:30;;;;;;;3.95;2.15;;;20.50;30.00;;;;;;5040052;28;20559;-59
2021/12/27 04:55:55;;;;;;;2.78;2.10;;;20.50;30.00;;;;;;5047490;28;20034;-52
2021/12/27 04:58:22;;;;;;;2.15;1.77;;;20.50;30.00;;;;;;5034948;28;20084;-56
2021/12/27 05:00:49;;;;;;;3.20;2.13;;;20.50;30.00;;;;;;5041461;28;20087;-58
2021/12/27 05:03:15;;;;;;;1.92;1.60;;;20.50;30.00;;;;;;5048423;28;20447;-56
2021/12/27 05:05:44;;;;;;;2.35;1.92;;;20.50;30.00;;;;;;5050505;28;20055;-54
2021/12/27 05:08:11;;;;;;;2.75;1.85;;;20.40;30.00;;;;;;5035113;28;20045;-59
2021/12/27 05:10:37;;;;;;;2.70;2.00;;;20.50;30.10;;;;;;5038774;28;20032;-54
2021/12/27 05:13:03;;;;;;;2.75;1.92;;;20.50;30.10;;;;;;5051059;28;20459;-58
2021/12/27 05:15:29;;;;;;;3.17;2.10;;;20.40;30.10;;;;;;5039085;28;20049;-58
2021/12/27 05:17:55;;;;;;;2.38;2.08;;;20.50;30.10;;;;;;5040107;28;20460;-58
2021/12/27 05:20:22;;;;;;;2.75;1.90;;;20.40;30.10;;;;;;5044864;28;20125;-56
2021/12/27 05:22:50;;;;;;;3.05;1.80;;;20.40;30.10;;;;;;5035352;28;20025;-56
2021/12/27 05:25:16;;;;;;;2.63;1.90;;;20.40;30.10;;;;;;5033569;28;20051;-58
2021/12/27 05:27:43;;;;;;;2.65;1.90;;;20.40;30.10;;;;;;5048773;28;20086;-56
2021/12/27 05:30:11;;;;;;;3.88;1.98;;;20.40;30.10;;;;;;5043996;28;20035;-57
2021/12/27 05:32:38;;;;;;;2.75;2.15;;;20.40;30.20;;;;;;5036041;28;20490;-56
2021/12/27 05:35:04;;;;;;;2.17;1.90;;;20.40;30.20;;;;;;5037110;28;20021;-57
2021/12/27 05:37:31;;;;;;;2.63;2.03;;;20.50;30.30;;;;;;5041071;28;20032;-59
2021/12/27 05:40:03;;;;;;;2.92;2.10;;;20.40;30.30;;;;;;5044914;28;20060;-52
2021/12/27 05:42:29;;;;;;;2.70;1.85;;;20.40;30.30;;;;;;5045292;28;20029;-58
2021/12/27 05:44:54;;;;;;;2.60;1.70;;;20.40;30.30;;;;;;5043309;28;20160;-55
2021/12/27 05:47:20;;;;;;;3.20;2.08;;;20.40;30.30;;;;;;5035039;28;20068;-58
2021/12/27 05:49:46;;;;;;;3.47;2.22;;;20.40;30.40;;;;;;5039006;28;20034;-57
2021/12/27 05:52:12;;;;;;;1.88;1.50;;;20.40;30.40;;;;;;5037509;28;20025;-57
2021/12/27 05:54:38;;;;;;;2.70;1.90;;;20.40;30.40;;;;;;5034526;28;20075;-59
2021/12/27 05:57:04;;;;;;;3.28;2.00;;;20.40;30.40;;;;;;5037603;28;20075;-56
2021/12/27 05:59:30;;;;;;;2.75;1.90;;;20.40;30.40;;;;;;5061180;28;20052;-55
2021/12/27 06:01:56;;;;;;;2.80;2.05;;;20.40;30.50;;;;;;5054318;28;20028;-52
2021/12/27 06:04:22;;;;;;;2.95;1.90;;;20.40;30.50;;;;;;5044065;28;20048;-55
2021/12/27 06:06:50;;;;;;;2.38;1.80;;;20.40;30.50;;;;;;5046127;28;20081;-55
2021/12/27 06:09:16;;;;;;;2.45;1.67;;;20.40;30.50;;;;;;5040211;28;20025;-55
2021/12/27 06:11:42;;;;;;;3.13;2.17;;;20.40;30.50;;;;;;5057490;28;20025;-53
2021/12/27 06:14:08;;;;;;;3.17;1.70;;;20.40;30.50;;;;;;5054589;28;20100;-54
2021/12/27 06:16:34;;;;;;;2.25;1.60;;;20.40;30.50;;;;;;5040705;28;20041;-54
2021/12/27 06:19:00;;;;;;;2.60;1.95;;;20.40;30.60;;;;;;5041641;28;20052;-52
2021/12/27 06:21:26;;;;;;;2.58;1.98;;;20.40;30.60;;;;;;5054236;28;20025;-57
2021/12/27 06:23:51;;;;;;;2.20;1.90;;;20.40;30.60;;;;;;5054720;28;20112;-55
2021/12/27 06:26:17;;;;;;;2.83;1.70;;;20.40;30.60;;;;;;5050914;28;20109;-53
2021/12/27 06:28:44;;;;;;;3.65;1.60;;;20.40;30.60;;;;;;5042090;28;20053;-58
2021/12/27 06:31:10;;;;;;;2.90;1.50;;;20.40;30.70;;;;;;5049789;28;20419;-57
2021/12/27 06:33:36;;;;;;;2.33;1.60;;;20.40;30.70;;;;;;5044366;28;20053;-59
2021/12/27 06:36:02;;;;;;;2.88;1.88;;;20.40;30.70;;;;;;5038293;28;20021;-56
2021/12/27 06:38:28;;;;;;;2.20;1.80;;;20.30;30.70;;;;;;5038207;28;20060;-58
2021/12/27 06:40:53;;;;;;;2.40;1.60;;;20.30;30.70;;;;;;5047416;28;20374;-55
2021/12/27 06:43:19;;;;;;;2.20;1.77;;;20.30;30.80;;;;;;5044983;28;20104;-58
2021/12/27 06:45:45;;;;;;;3.28;2.08;;;20.30;30.80;;;;;;5041531;28;20031;-58
2021/12/27 06:48:11;;;;;;;3.00;2.13;;;20.30;30.80;;;;;;5038869;28;20033;-57
2021/12/27 06:50:37;;;;;;;2.40;1.70;;;20.30;30.80;;;;;;5044336;28;20047;-57
2021/12/27 06:53:03;;;;;;;2.53;1.80;;;20.30;30.80;;;;;;5051128;28;20097;-58
2021/12/27 06:55:29;;;;;;;2.92;1.85;;;20.40;30.90;;;;;;5051513;28;21814;-57
2021/12/27 06:57:55;;;;;;;2.33;1.67;;;20.30;30.90;;;;;;5036821;28;20025;-59
2021/12/27 07:00:21;;;;;;;2.50;1.70;;;20.30;30.90;;;;;;5040314;28;20017;-58
2021/12/27 07:02:47;;;;;;;2.55;1.90;;;20.30;30.90;;;;;;5041144;28;20100;-57
2021/12/27 07:05:13;;;;;;;2.15;1.75;;;20.30;31.00;;;;;;5050026;28;20021;-58
2021/12/27 07:07:40;;;;;;;4.15;1.80;;;20.30;31.00;;;;;;5047774;28;20028;-56
2021/12/27 07:10:10;;;;;;;2.13;1.67;;;20.30;31.10;;;;;;5053796;28;20324;-56
2021/12/27 07:12:36;;;;;;;2.67;2.15;;;20.30;31.10;;;;;;5047518;28;20021;-54
2021/12/27 07:15:02;;;;;;;2.72;2.03;;;20.30;31.10;;;;;;5043226;28;20122;-55
2021/12/27 07:17:28;;;;;;;2.47;1.70;;;20.30;31.10;;;;;;5042166;28;20044;-54
2021/12/27 07:19:53;;;;;;;5.47;2.13;;;20.30;31.20;;;;;;5036600;28;20028;-55
2021/12/27 07:22:19;;;;;;;3.08;1.92;;;20.30;31.20;;;;;;5042373;28;20083;-59
2021/12/27 07:24:45;;;;;;;3.45;1.60;;;20.30;31.20;;;;;;5045389;28;20155;-57
2021/12/27 07:27:11;;;;;;;2.38;1.77;;;20.30;31.30;;;;;;5052316;28;20119;-56
2021/12/27 07:29:38;;;;;;;3.83;1.88;;;20.30;31.30;;;;;;5036782;28;20022;-55
2021/12/27 07:32:04;;;;;;;4.80;1.80;;;20.30;31.30;;;;;;5036483;28;20032;-57
2021/12/27 07:34:30;;;;;;;3.17;1.77;;;20.30;31.30;;;;;;5049047;28;20032;-57
2021/12/27 07:36:57;;;;;;;3.75;1.95;;;20.30;31.30;;;;;;5047323;28;20033;-56
2021/12/27 07:39:24;;;;;;;3.15;1.80;;;20.30;31.30;;;;;;5039765;28;20037;-55
2021/12/27 07:41:49;;;;;;;3.90;2.20;;;20.30;31.30;;;;;;5036403;28;20112;-56
2021/12/27 07:44:16;;;;;;;2.47;2.00;;;20.30;31.40;;;;;;5043758;28;20393;-59
2021/12/27 07:46:43;;;;;;;2.80;1.95;;;20.30;31.40;;;;;;5039208;28;20035;-55
2021/12/27 07:49:16;;;;;;;3.50;2.13;;;20.30;31.30;;;;;;5047161;28;20026;-57
2021/12/27 07:51:43;;;;;;;3.33;1.80;;;20.40;31.40;;;;;;5053571;28;20013;-54
2021/12/27 07:54:10;;;;;;;3.25;1.80;;;20.40;31.50;;;;;;5054716;28;20113;-58
2021/12/27 07:56:38;;;;;;;3.63;2.58;;;20.40;31.50;;;;;;5028972;28;20033;-55
2021/12/27 07:59:05;;;;;;;4.30;2.13;;;20.50;31.50;;;;;;5049749;28;20022;-55
2021/12/27 08:01:37;;;;;;;3.53;2.33;;;20.50;31.50;;;;;;5043713;28;20044;-58
2021/12/27 08:04:04;;;;;;;3.17;2.50;;;20.60;31.40;;;;;;5016425;28;20646;-57
2021/12/27 08:06:37;;;;;;;2.95;2.42;;;20.80;31.40;;;;;;5010402;28;20040;-52
2021/12/27 08:09:05;;;;;;;4.40;2.38;;;20.80;31.30;;;;;;5010961;28;20022;-56
2021/12/27 08:11:32;;;;;;;3.83;2.30;;;20.90;31.20;;;;;;5006030;28;20021;-52
2021/12/27 08:13:57;;;;;;;4.03;2.40;;;21.00;31.10;;;;;;5013187;28;20757;-59
2021/12/27 08:16:23;;;;;;;2.75;2.10;;;21.20;31.10;;;;;;5013526;28;20022;-58
2021/12/27 08:18:51;;;;;;;3.53;2.53;;;21.30;31.00;;;;;;5011894;28;20420;-51
2021/12/27 08:21:18;;;;;;;3.90;2.30;;;21.30;30.90;;;;;;5013449;28;20464;-54
2021/12/27 08:23:44;;;;;;;2.65;2.03;;;21.40;30.80;;;;;;5011580;28;20022;-57
2021/12/27 08:26:10;;;;;;;3.30;2.25;;;21.50;30.80;;;;;;5012366;28;20040;-52
2021/12/27 08:28:36;;;;;;;3.28;2.65;;;21.60;30.70;;;;;;5013165;28;20018;-56
2021/12/27 08:31:02;;;;;;;3.25;2.30;;;21.60;30.60;;;;;;5014086;28;20050;-52
2021/12/27 08:33:28;;;;;;;2.95;2.42;;;21.70;30.60;;;;;;5012660;28;20077;-54
2021/12/27 08:35:53;;;;;;;4.03;2.15;;;21.80;30.60;;;;;;5012509;28;20041;-53
2021/12/27 08:38:19;;;;;;;3.30;2.58;;;21.80;30.50;;;;;;5003644;28;20019;-56
2021/12/27 08:40:45;;;;;;;3.10;2.40;;;21.90;30.50;;;;;;5002968;28;20041;-49
2021/12/27 08:43:11;;;;;;;3.78;2.45;;;21.90;30.50;;;;;;5011578;28;20026;-56
2021/12/27 08:45:37;;;;;;;2.83;2.00;;;21.90;30.50;;;;;;5014026;28;20113;-55
2021/12/27 08:48:04;;;;;;;2.78;2.08;;;22.00;30.50;;;;;;5014610;28;20080;-55
2021/12/27 08:50:29;;;;;;;2.58;2.00;;;22.00;30.50;;;;;;5011819;28;20022;-58
2021/12/27 08:52:55;;;;;;;2.97;1.98;;;22.00;30.50;;;;;;5015170;28;20052;-59
2021/12/27 08:55:21;;;;;;;3.00;2.28;;;22.00;30.50;;;;;;5014037;28;20030;-57
2021/12/27 08:57:47;;;;;;;2.58;1.90;;;22.10;30.50;;;;;;5010100;28;20044;-59
2021/12/27 09:00:16;;;;;;;2.50;1.83;;;22.10;30.40;;;;;;5013773;28;20035;-57
2021/12/27 09:02:43;;;;;;;3.80;2.38;;;22.10;30.40;;;;;;5023752;28;20040;-52
2021/12/27 09:05:10;;;;;;;2.55;2.00;;;22.10;30.40;;;;;;5053510;28;20021;-54
2021/12/27 09:07:35;;;;;;;2.10;1.50;;;22.10;30.30;;;;;;5054526;28;20036;-56
2021/12/27 09:10:02;;;;;;;2.10;1.70;;;22.10;30.30;;;;;;5044457;28;20425;-56
2021/12/27 09:12:28;;;;;;;1.95;1.63;;;22.20;30.20;;;;;;5034893;28;20022;-59
2021/12/27 09:14:54;;;;;;;1.88;1.50;;;22.20;30.20;;;;;;5044010;28;20075;-58
2021/12/27 09:17:21;;;;;;;1.85;1.60;;;22.20;30.10;;;;;;5037007;28;20029;-61
2021/12/27 09:19:48;;;;;;;4.82;1.63;;;22.20;30.10;;;;;;5034621;28;20314;-60
2021/12/27 09:22:15;;;;;;;2.13;1.90;;;22.20;30.10;;;;;;5042448;28;20043;-55
2021/12/27 09:24:44;;;;;;;1.58;1.48;;;22.20;30.10;;;;;;5051205;28;20024;-58
2021/12/27 09:27:10;;;;;;;2.47;2.00;;;22.20;30.10;;;;;;5042563;28;20029;-57
2021/12/27 09:29:36;;;;;;;2.03;1.70;;;22.20;30.10;;;;;;5044271;28;20018;-56
2021/12/27 09:32:03;;;;;;;3.58;1.80;;;22.20;30.10;;;;;;5042133;28;20447;-56
2021/12/27 09:34:29;;;;;;;2.83;1.60;;;22.20;30.10;;;;;;5047854;28;20062;-60
2021/12/27 09:36:55;;;;;;;2.40;1.90;;;22.20;30.10;;;;;;5060004;28;20033;-60
2021/12/27 09:39:20;;;;;;;3.38;2.50;;;22.20;30.10;;;;;;5051315;28;20440;-57
2021/12/27 09:41:46;;;;;;;3.15;2.78;;;22.20;30.10;;;;;;5057357;28;20036;-55
2021/12/27 09:44:12;;;;;;;4.43;3.42;;;22.20;30.20;;;;;;5054557;28;20039;-56
2021/12/27 09:46:38;;;;;;;6.35;4.00;;;22.20;30.30;;;;;;5052221;28;20040;-55
2021/12/27 09:49:07;;;;;;;5.00;3.70;;;22.20;30.40;;;;;;5049798;28;20037;-58
2021/12/27 09:51:34;;;;;;;4.53;3.28;;;22.20;30.50;;;;;;5058454;28;20470;-57
2021/12/27 09:54:01;;;;;;;4.82;3.63;;;22.20;30.50;;;;;;5058012;28;20039;-60
2021/12/27 09:56:27;;;;;;;5.13;3.58;;;22.20;30.50;;;;;;5057931;28;20474;-55
2021/12/27 09:58:54;;;;;;;3.90;3.15;;;22.20;30.50;;;;;;5058049;28;20017;-60
2021/12/27 10:01:19;;;;;;;4.85;3.10;;;22.20;30.50;;;;;;5057795;28;20040;-57
2021/12/27 10:03:57;;;;;;;4.07;3.20;;;22.20;30.50;;;;;;5058276;28;20395;-57
2021/12/27 10:06:26;;;;;;;4.15;3.20;;;22.20;30.50;;;;;;5058162;28;20104;-59
2021/12/27 10:09:04;;;;;;;4.75;2.83;;;22.20;30.50;;;;;;5057708;28;20112;-57
2021/12/27 10:11:36;;;;;;;3.90;2.90;;;22.20;30.50;;;;;;5057771;28;20329;-58
2021/12/27 10:14:07;;;;;;;2.95;2.55;;;22.20;30.50;;;;;;5057671;28;20344;-57
2021/12/27 10:16:38;;;;;;;3.08;2.67;;;22.20;30.40;;;;;;5057345;28;20056;-60
2021/12/27 10:19:07;;;;;;;3.42;2.75;;;22.20;30.40;;;;;;5057571;28;20036;-57
2021/12/27 10:21:34;;;;;;;3.03;2.60;;;22.20;30.40;;;;;;5057770;28;20033;-58
2021/12/27 10:24:10;;;;;;;3.33;2.78;;;22.20;30.40;;;;;;5057570;28;20056;-58
2021/12/27 10:26:37;;;;;;;3.28;2.42;;;22.20;30.40;;;;;;5057145;28;20040;-59
2021/12/27 10:29:20;;;;;;;3.08;2.60;;;22.20;30.50;;;;;;5057293;28;20037;-59
2021/12/27 10:32:09;;;;;;;3.85;2.72;;;22.20;30.40;;;;;;5054088;28;20113;-59
2021/12/27 10:34:43;;;;;;;3.47;2.22;;;22.20;30.40;;;;;;5053625;28;20087;-61
2021/12/27 10:37:17;;;;;;;;;;;22.20;30.50;;;;;;5037808;28;20073;-57
2021/12/27 10:39:48;;;;;;;2.38;2.00;;;22.10;30.50;;;;;;5056508;28;19906;-61
2021/12/27 10:42:17;;;;;;;2.88;2.28;;;22.10;30.60;;;;;;5056515;28;20055;-59
2021/12/27 10:44:43;;;;;;;3.33;2.30;;;22.10;30.60;;;;;;5055195;28;20029;-57
2021/12/27 10:47:26;;;;;;;2.50;2.22;;;22.10;30.60;;;;;;5036475;28;20085;-61
2021/12/27 10:49:52;;;;;;;2.47;2.28;;;22.20;30.60;;;;;;5053104;28;20033;-60
2021/12/27 10:52:18;;;;;;;3.00;2.28;;;22.20;30.70;;;;;;5033164;28;20297;-51
2021/12/27 10:54:43;;;;;;;2.60;2.15;;;22.10;30.70;;;;;;5057265;28;20039;-53
2021/12/27 10:57:09;;;;;;;2.65;2.33;;;22.10;30.80;;;;;;5056731;28;20025;-56
2021/12/27 10:59:35;;;;;;;2.78;2.40;;;22.20;30.90;;;;;;5055746;28;20029;-54
2021/12/27 11:02:10;;;;;;;2.85;2.20;;;22.20;31.00;;;;;;5053730;28;20021;-58
2021/12/27 11:04:37;;;;;;;2.83;2.22;;;22.20;31.10;;;;;;5052831;28;20044;-59
2021/12/27 11:07:05;;;;;;;3.03;2.22;;;22.20;31.20;;;;;;5056406;28;20021;-60
2021/12/27 11:09:32;;;;;;;2.80;2.22;;;22.20;31.20;;;;;;5056445;28;20108;-57
2021/12/27 11:11:59;;;;;;;3.13;2.58;;;22.20;31.30;;;;;;5050573;28;20044;-58
2021/12/27 11:14:26;;;;;;;2.15;1.80;;;22.20;31.30;;;;;;5048538;28;20432;-63
2021/12/27 11:16:56;;;;;;;2.90;2.15;;;22.30;31.40;;;;;;5047984;28;20039;-61
2021/12/27 11:19:22;;;;;;;2.58;2.00;;;22.30;31.40;;;;;;5030564;28;20504;-61
2021/12/27 11:21:49;;;;;;;2.70;1.88;;;22.30;31.40;;;;;;5024584;28;20453;-61
2021/12/27 11:24:16;;;;;;;2.95;2.33;;;22.30;31.40;;;;;;5042582;28;20111;-56
2021/12/27 11:26:43;;;;;;;2.97;2.28;;;22.30;31.40;;;;;;5040579;28;20063;-50
2021/12/27 11:29:21;;;;;;;4.15;3.03;;;22.30;31.40;;;;;;5046231;28;20034;-55
2021/12/27 11:31:51;;;;;;;4.18;3.28;;;22.30;31.50;;;;;;5047772;28;20108;-57
2021/12/27 11:34:18;;;;;;;6.20;4.72;;;22.30;31.80;;;;;;5009701;28;20046;-56
2021/12/27 11:36:48;;;;;;;5.50;4.55;;;22.20;32.00;;;;;;5052461;28;20355;-53
2021/12/27 11:39:25;;;;;;;5.30;4.50;;;22.20;32.20;;;;;;5050355;28;20359;-53
2021/12/27 11:42:05;;;;;;;6.10;4.68;;;22.30;32.40;;;;;;5045599;28;20325;-56
2021/12/27 11:44:49;;;;;;;8.00;4.43;;;22.30;32.50;;;;;;5050287;28;20443;-52
2021/12/27 11:47:32;;;;;;;7.72;5.88;;;22.30;32.70;;;;;;5045747;28;20035;-48
2021/12/27 11:50:07;;;;;;;8.20;5.33;;;22.30;32.80;;;;;;5049509;28;20040;-52
2021/12/27 11:52:35;;;;;;;7.35;6.20;;;22.40;32.90;;;;;;5049315;28;20052;-45
2021/12/27 11:55:05;;;;;;;6.15;5.20;;;22.40;32.90;;;;;;5049684;28;20404;-51
2021/12/27 11:57:44;;;;;;;7.07;5.63;;;22.50;32.90;;;;;;5036073;28;20120;-49
2021/12/27 12:00:23;;;;;;;6.63;5.80;;;22.50;33.00;;;;;;5047431;28;20044;-56
2021/12/27 12:02:51;;;;;;;7.47;5.95;;;22.50;33.00;;;;;;5014490;28;20048;-59
2021/12/27 12:05:44;;;;;;;7.30;5.65;;;22.60;33.10;;;;;;4999455;28;20045;-57
2021/12/27 12:08:15;;;;;;;6.40;5.00;;;22.60;33.20;;;;;;5010016;28;20026;-61
2021/12/27 12:10:50;;;;;;;5.80;4.57;;;22.60;33.20;;;;;;5006310;28;20042;-55
2021/12/27 12:13:21;;;;;;;5.25;4.22;;;22.70;33.30;;;;;;5005567;28;20037;-49
2021/12/27 12:16:09;;;;;;;6.30;4.63;;;22.70;33.30;;;;;;5002316;28;20048;-56
2021/12/27 12:18:40;;;;;;;6.28;4.60;;;22.80;33.30;;;;;;5004039;28;20037;-57
2021/12/27 12:21:27;;;;;;;5.43;4.40;;;22.80;33.30;;;;;;5005753;28;20060;-58
2021/12/27 12:23:59;;;;;;;6.10;3.70;;;22.80;33.30;;;;;;5006588;28;20110;-53
2021/12/27 12:26:28;;;;;;;5.20;3.80;;;22.80;33.30;;;;;;4999466;28;20495;-51
2021/12/27 12:29:03;;;;;;;5.22;3.95;;;22.90;33.30;;;;;;5009038;28;20034;-56
2021/12/27 12:31:31;;;;;;;4.97;3.92;;;22.90;33.20;;;;;;5005194;28;20085;-59
2021/12/27 12:34:18;;;;;;;3.60;3.25;;;22.90;33.30;;;;;;5004516;28;20033;-56
2021/12/27 12:36:52;;;;;;;4.95;3.67;;;22.90;33.30;;;;;;5009807;28;20533;-54
2021/12/27 12:39:20;;;;;;;3.50;3.10;;;23.00;33.40;;;;;;5005930;28;20021;-56
2021/12/27 12:41:47;;;;;;;3.55;3.13;;;22.90;33.30;;;;;;5007038;28;20026;-58
2021/12/27 12:44:14;;;;;;;3.50;2.70;;;23.00;33.30;;;;;;5010157;28;20021;-59
2021/12/27 12:46:46;;;;;;;3.47;2.75;;;23.00;33.30;;;;;;5005687;28;20341;-57
2021/12/27 12:49:20;;;;;;;3.45;2.40;;;23.00;33.30;;;;;;5004363;28;20021;-57
2021/12/27 12:51:51;;;;;;;4.20;2.92;;;23.00;33.20;;;;;;5010229;28;20464;-56
2021/12/27 12:54:23;;;;;;;2.97;2.55;;;23.00;33.20;;;;;;5008331;28;20088;-52
2021/12/27 12:56:55;;;;;;;4.50;3.60;;;23.00;33.20;;;;;;5010667;28;20048;-54
2021/12/27 12:59:32;;;;;;;5.03;4.03;;;23.10;33.20;;;;;;5007161;28;20453;-58